createdAt,value
2019-05-26T00:00:02.598Z,1007.4
2019-05-26T00:00:43.727Z,1007.39
2019-05-26T00:01:24.149Z,1007.38
2019-05-26T00:02:05.110Z,1007.41
2019-05-26T00:02:45.912Z,1007.39
2019-05-26T00:03:26.272Z,1007.38
2019-05-26T00:04:06.878Z,1007.4
2019-05-26T00:04:47.395Z,1007.38
2019-05-26T00:05:27.761Z,1007.38
2019-05-26T00:06:08.198Z,1007.37
2019-05-26T00:06:48.806Z,1007.38
2019-05-26T00:07:30.798Z,1007.36
2019-05-26T00:08:09.699Z,1007.4
2019-05-26T00:08:50.008Z,1007.35
2019-05-26T00:09:30.488Z,1007.35
2019-05-26T00:10:10.992Z,1007.34
2019-05-26T00:10:51.540Z,1007.38
2019-05-26T00:11:32.034Z,1007.37
2019-05-26T00:12:15.812Z,1007.39
2019-05-26T00:12:53.106Z,1007.36
2019-05-26T00:13:33.883Z,1007.36
2019-05-26T00:14:14.341Z,1007.35
2019-05-26T00:14:54.789Z,1007.35
2019-05-26T00:15:35.236Z,1007.35
2019-05-26T00:16:15.884Z,1007.33
2019-05-26T00:16:57.167Z,1007.36
2019-05-26T00:17:38.765Z,1007.32
2019-05-26T00:18:19.659Z,1007.32
2019-05-26T00:19:00.965Z,1007.33
2019-05-26T00:20:21.919Z,1007.32
2019-05-26T00:21:02.733Z,1007.31
2019-05-26T00:21:43.124Z,1007.32
2019-05-26T00:22:23.739Z,1007.3
2019-05-26T00:24:41.824Z,1007.27
2019-05-26T00:25:22.171Z,1007.3
2019-05-26T00:26:02.603Z,1007.28
2019-05-26T00:26:42.960Z,1007.31
2019-05-26T00:27:23.359Z,1007.29
2019-05-26T00:28:03.739Z,1007.28
2019-05-26T00:28:44.157Z,1007.26
2019-05-26T00:29:24.532Z,1007.27
2019-05-26T00:30:04.914Z,1007.28
2019-05-26T00:30:45.299Z,1007.26
2019-05-26T00:31:25.716Z,1007.27
2019-05-26T00:32:06.064Z,1007.28
2019-05-26T00:32:46.475Z,1007.25
2019-05-26T00:33:26.890Z,1007.29
2019-05-26T00:34:07.220Z,1007.25
2019-05-26T00:34:47.685Z,1007.29
2019-05-26T00:35:27.978Z,1007.27
2019-05-26T00:36:08.353Z,1007.27
2019-05-26T00:36:48.758Z,1007.25
2019-05-26T00:37:29.174Z,1007.23
2019-05-26T00:38:09.621Z,1007.22
2019-05-26T00:38:49.916Z,1007.22
2019-05-26T00:39:30.309Z,1007.25
2019-05-26T00:40:10.736Z,1007.25
2019-05-26T00:40:51.158Z,1007.26
2019-05-26T00:41:31.487Z,1007.26
2019-05-26T00:42:11.896Z,1007.27
2019-05-26T00:42:52.227Z,1007.29
2019-05-26T00:43:32.675Z,1007.27
2019-05-26T00:44:13.067Z,1007.31
2019-05-26T00:44:53.440Z,1007.27
2019-05-26T00:45:33.788Z,1007.27
2019-05-26T00:46:14.186Z,1007.26
2019-05-26T00:46:54.568Z,1007.22
2019-05-26T00:47:34.991Z,1007.3
2019-05-26T00:48:15.381Z,1007.26
2019-05-26T00:49:36.139Z,1007.26
2019-05-26T00:50:16.551Z,1007.25
2019-05-26T00:50:56.976Z,1007.23
2019-05-26T00:51:37.424Z,1007.27
2019-05-26T00:52:17.769Z,1007.26
2019-05-26T00:52:58.109Z,1007.25
2019-05-26T00:53:38.517Z,1007.24
2019-05-26T00:54:18.937Z,1007.27
2019-05-26T00:54:59.297Z,1007.23
2019-05-26T00:55:39.754Z,1007.22
2019-05-26T00:56:20.070Z,1007.2
2019-05-26T00:57:00.460Z,1007.22
2019-05-26T00:57:40.833Z,1007.26
2019-05-26T00:58:21.227Z,1007.23
2019-05-26T00:59:01.619Z,1007.23
2019-05-26T00:59:42.051Z,1007.23
2019-05-26T01:00:22.570Z,1007.18
2019-05-26T01:01:02.795Z,1007.2
2019-05-26T01:01:43.198Z,1007.2
2019-05-26T01:02:23.608Z,1007.15
2019-05-26T01:03:03.978Z,1007.14
2019-05-26T01:03:44.364Z,1007.14
2019-05-26T01:04:24.815Z,1007.19
2019-05-26T01:05:05.202Z,1007.11
2019-05-26T01:05:45.633Z,1007.11
2019-05-26T01:07:06.461Z,1007.12
2019-05-26T01:07:46.865Z,1007.13
2019-05-26T01:08:27.239Z,1007.14
2019-05-26T01:09:07.625Z,1007.13
2019-05-26T01:09:48.026Z,1007.16
2019-05-26T01:10:28.395Z,1007.13
2019-05-26T01:11:08.751Z,1007.14
2019-05-26T01:18:38.202Z,1007.1
2019-05-26T01:19:19.035Z,1007.12
2019-05-26T01:19:59.440Z,1007.13
2019-05-26T01:20:39.982Z,1007.1
2019-05-26T01:21:20.347Z,1007.12
2019-05-26T01:22:00.789Z,1007.11
2019-05-26T01:22:41.231Z,1007.14
2019-05-26T01:23:21.695Z,1007.12
2019-05-26T01:24:02.115Z,1007.14
2019-05-26T01:24:42.551Z,1007.11
2019-05-26T01:25:22.974Z,1007.12
2019-05-26T01:26:03.390Z,1007.11
2019-05-26T01:26:43.830Z,1007.12
2019-05-26T01:32:10.040Z,1007.09
2019-05-26T01:32:50.138Z,1007.07
2019-05-26T01:33:30.562Z,1007.1
2019-05-26T01:34:10.945Z,1007.07
2019-05-26T01:34:51.376Z,1007.08
2019-05-26T01:35:31.798Z,1007.11
2019-05-26T01:36:12.257Z,1007.11
2019-05-26T01:36:52.791Z,1007.12
2019-05-26T01:37:33.174Z,1007.11
2019-05-26T01:38:22.934Z,1007.1
2019-05-26T01:38:53.994Z,1007.1
2019-05-26T01:39:34.441Z,1007.09
2019-05-26T01:40:14.891Z,1007.13
2019-05-26T01:40:55.283Z,1007.06
2019-05-26T01:41:36.103Z,1007.1
2019-05-26T01:42:16.661Z,1007.08
2019-05-26T01:42:57.245Z,1007.06
2019-05-26T01:43:38.076Z,1007.06
2019-05-26T01:44:18.170Z,1007.08
2019-05-26T01:44:58.586Z,1007.06
2019-05-26T01:45:38.968Z,1007.04
2019-05-26T01:46:19.386Z,1007.1
2019-05-26T01:46:59.842Z,1007.09
2019-05-26T01:47:40.265Z,1007.09
2019-05-26T01:48:20.654Z,1007.04
2019-05-26T01:49:01.116Z,1007.07
2019-05-26T01:49:41.541Z,1007.09
2019-05-26T01:50:22.261Z,1007.09
2019-05-26T01:51:02.717Z,1007.08
2019-05-26T01:51:43.056Z,1007.08
2019-05-26T01:52:23.555Z,1007.08
2019-05-26T01:53:04.013Z,1007.09
2019-05-26T01:53:44.423Z,1007.1
2019-05-26T01:54:24.838Z,1007.11
2019-05-26T01:55:05.342Z,1007.09
2019-05-26T01:55:45.717Z,1007.11
2019-05-26T01:56:26.141Z,1007.09
2019-05-26T01:57:06.611Z,1007.12
2019-05-26T01:57:47.002Z,1007.14
2019-05-26T01:58:27.428Z,1007.13
2019-05-26T01:59:07.882Z,1007.16
2019-05-26T01:59:48.313Z,1007.1
2019-05-26T02:00:28.717Z,1007.12
2019-05-26T02:01:09.147Z,1007.09
2019-05-26T02:01:49.575Z,1007.08
2019-05-26T02:02:30.248Z,1007.12
2019-05-26T02:03:10.617Z,1007.12
2019-05-26T02:03:51.028Z,1007.12
2019-05-26T02:04:31.490Z,1007.14
2019-05-26T02:05:11.962Z,1007.11
2019-05-26T02:05:52.665Z,1007.1
2019-05-26T02:06:32.996Z,1007.11
2019-05-26T02:07:13.448Z,1007.15
2019-05-26T02:07:53.886Z,1007.1
2019-05-26T02:08:39.076Z,1007.1
2019-05-26T02:09:55.056Z,1007.12
2019-05-26T02:10:35.531Z,1007.14
2019-05-26T02:11:15.979Z,1007.12
2019-05-26T02:11:56.419Z,1007.07
2019-05-26T02:12:36.891Z,1007.1
2019-05-26T02:13:17.297Z,1007.11
2019-05-26T02:13:57.703Z,1007.12
2019-05-26T02:14:38.120Z,1007.12
2019-05-26T02:15:18.533Z,1007.11
2019-05-26T02:15:58.963Z,1007.11
2019-05-26T02:16:39.452Z,1007.13
2019-05-26T02:17:19.866Z,1007.11
2019-05-26T02:18:00.460Z,1007.13
2019-05-26T02:18:40.926Z,1007.1
2019-05-26T02:19:21.525Z,1007.16
2019-05-26T02:21:15.766Z,1007.13
2019-05-26T02:21:55.631Z,1007.1
2019-05-26T02:22:36.079Z,1007.13
2019-05-26T02:23:16.446Z,1007.11
2019-05-26T02:23:56.857Z,1007.15
2019-05-26T02:24:37.282Z,1007.09
2019-05-26T02:25:17.670Z,1007.08
2019-05-26T02:25:58.081Z,1007.1
2019-05-26T02:26:38.603Z,1007.1
2019-05-26T02:27:19.257Z,1007.07
2019-05-26T02:27:59.766Z,1007.07
2019-05-26T02:28:40.274Z,1007.07
2019-05-26T02:29:20.901Z,1007.09
2019-05-26T02:30:01.451Z,1007.04
2019-05-26T02:30:41.892Z,1007.09
2019-05-26T02:31:22.231Z,1007.03
2019-05-26T02:32:02.666Z,1007.06
2019-05-26T02:32:43.024Z,1007.03
2019-05-26T02:33:23.504Z,1007.03
2019-05-26T02:34:03.911Z,1007
2019-05-26T02:34:44.466Z,1007
2019-05-26T02:35:24.835Z,1006.99
2019-05-26T02:36:05.265Z,1007.02
2019-05-26T02:36:45.625Z,1006.99
2019-05-26T02:37:26.008Z,1006.98
2019-05-26T02:38:06.429Z,1006.98
2019-05-26T02:39:00.712Z,1007.02
2019-05-26T02:39:27.448Z,1006.96
2019-05-26T02:40:07.840Z,1007.01
2019-05-26T02:40:48.305Z,1006.94
2019-05-26T02:41:28.687Z,1006.97
2019-05-26T02:42:49.490Z,1006.94
2019-05-26T02:43:29.888Z,1006.92
2019-05-26T02:44:10.306Z,1006.92
2019-05-26T02:44:50.731Z,1006.93
2019-05-26T02:45:31.118Z,1006.92
2019-05-26T02:46:11.588Z,1006.94
2019-05-26T02:48:29.896Z,1006.93
2019-05-26T02:49:10.773Z,1006.92
2019-05-26T02:49:51.160Z,1006.92
2019-05-26T02:50:31.576Z,1006.95
2019-05-26T02:51:11.976Z,1006.91
2019-05-26T02:51:52.530Z,1006.95
2019-05-26T02:52:32.990Z,1006.95
2019-05-26T02:53:13.442Z,1006.92
2019-05-26T02:53:54.151Z,1006.9
2019-05-26T02:54:34.598Z,1006.92
2019-05-26T02:55:15.046Z,1006.95
2019-05-26T02:55:55.608Z,1006.92
2019-05-26T02:56:36.983Z,1006.88
2019-05-26T02:57:17.329Z,1006.89
2019-05-26T02:57:58.002Z,1006.88
2019-05-26T02:58:38.450Z,1006.88
2019-05-26T02:59:19.170Z,1006.89
2019-05-26T02:59:59.440Z,1006.86
2019-05-26T03:00:39.864Z,1006.87
2019-05-26T03:01:20.510Z,1006.86
2019-05-26T03:02:04.066Z,1006.85
2019-05-26T03:02:41.565Z,1006.83
2019-05-26T03:03:21.879Z,1006.82
2019-05-26T03:04:02.763Z,1006.81
2019-05-26T03:04:43.301Z,1006.8
2019-05-26T03:05:23.658Z,1006.81
2019-05-26T03:06:44.541Z,1006.85
2019-05-26T03:07:25.021Z,1006.85
2019-05-26T03:08:05.649Z,1006.84
2019-05-26T03:08:46.114Z,1006.8
2019-05-26T03:09:26.948Z,1006.81
2019-05-26T03:10:07.402Z,1006.77
2019-05-26T03:10:48.065Z,1006.77
2019-05-26T03:11:28.419Z,1006.77
2019-05-26T03:12:08.818Z,1006.75
2019-05-26T03:12:49.259Z,1006.74
2019-05-26T03:13:29.668Z,1006.75
2019-05-26T03:14:10.112Z,1006.76
2019-05-26T03:14:50.568Z,1006.76
2019-05-26T03:15:30.992Z,1006.78
2019-05-26T03:16:11.400Z,1006.76
2019-05-26T03:16:51.823Z,1006.77
2019-05-26T03:17:32.532Z,1006.77
2019-05-26T03:18:13.054Z,1006.78
2019-05-26T03:19:34.376Z,1006.78
2019-05-26T03:20:14.900Z,1006.82
2019-05-26T03:20:55.399Z,1006.82
2019-05-26T03:21:35.695Z,1006.81
2019-05-26T03:22:16.171Z,1006.81
2019-05-26T03:22:56.569Z,1006.82
2019-05-26T03:23:37.031Z,1006.77
2019-05-26T03:24:17.452Z,1006.77
2019-05-26T03:24:57.867Z,1006.8
2019-05-26T03:25:39.332Z,1006.82
2019-05-26T03:26:19.736Z,1006.84
2019-05-26T03:27:00.214Z,1006.82
2019-05-26T03:27:40.610Z,1006.79
2019-05-26T03:28:21.008Z,1006.77
2019-05-26T03:29:41.889Z,1006.8
2019-05-26T03:30:22.288Z,1006.77
2019-05-26T03:31:03.118Z,1006.8
2019-05-26T03:31:43.496Z,1006.78
2019-05-26T03:32:23.917Z,1006.76
2019-05-26T03:33:04.397Z,1006.76
2019-05-26T03:33:44.830Z,1006.75
2019-05-26T03:34:25.371Z,1006.75
2019-05-26T03:35:05.738Z,1006.78
2019-05-26T03:35:46.153Z,1006.75
2019-05-26T03:36:26.698Z,1006.79
2019-05-26T03:37:07.028Z,1006.75
2019-05-26T03:37:47.432Z,1006.74
2019-05-26T03:38:27.834Z,1006.73
2019-05-26T03:39:08.216Z,1006.72
2019-05-26T03:39:48.608Z,1006.73
2019-05-26T03:40:29.016Z,1006.69
2019-05-26T03:41:09.446Z,1006.75
2019-05-26T03:41:49.842Z,1006.72
2019-05-26T03:42:30.257Z,1006.78
2019-05-26T03:43:10.653Z,1006.77
2019-05-26T03:43:51.037Z,1006.74
2019-05-26T03:44:31.418Z,1006.77
2019-05-26T03:45:11.835Z,1006.74
2019-05-26T03:45:52.224Z,1006.78
2019-05-26T03:47:16.529Z,1006.71
2019-05-26T03:47:53.459Z,1006.78
2019-05-26T03:48:33.884Z,1006.75
2019-05-26T03:49:14.291Z,1006.75
2019-05-26T03:49:54.666Z,1006.71
2019-05-26T03:50:35.091Z,1006.75
2019-05-26T03:51:15.513Z,1006.71
2019-05-26T03:51:55.878Z,1006.71
2019-05-26T03:52:36.322Z,1006.69
2019-05-26T03:53:16.708Z,1006.67
2019-05-26T03:53:57.100Z,1006.66
2019-05-26T03:54:37.490Z,1006.69
2019-05-26T03:55:17.882Z,1006.68
2019-05-26T03:55:58.271Z,1006.69
2019-05-26T03:56:38.698Z,1006.63
2019-05-26T03:57:19.156Z,1006.63
2019-05-26T03:57:59.506Z,1006.64
2019-05-26T03:58:39.909Z,1006.6
2019-05-26T03:59:20.373Z,1006.61
2019-05-26T04:00:00.783Z,1006.61
2019-05-26T04:00:41.264Z,1006.64
2019-05-26T04:01:21.721Z,1006.59
2019-05-26T04:02:02.114Z,1006.59
2019-05-26T04:02:42.546Z,1006.61
2019-05-26T04:03:22.949Z,1006.62
2019-05-26T04:04:03.381Z,1006.62
2019-05-26T04:04:43.788Z,1006.62
2019-05-26T04:05:24.192Z,1006.61
2019-05-26T04:06:04.607Z,1006.65
2019-05-26T04:06:45.003Z,1006.66
2019-05-26T04:07:25.386Z,1006.63
2019-05-26T04:08:05.829Z,1006.68
2019-05-26T04:08:46.205Z,1006.69
2019-05-26T04:09:26.740Z,1006.65
2019-05-26T04:10:07.180Z,1006.66
2019-05-26T04:10:47.561Z,1006.65
2019-05-26T04:11:27.956Z,1006.69
2019-05-26T04:12:08.355Z,1006.67
2019-05-26T04:12:48.742Z,1006.66
2019-05-26T04:13:29.173Z,1006.61
2019-05-26T04:14:09.567Z,1006.66
2019-05-26T04:14:49.997Z,1006.65
2019-05-26T04:15:30.404Z,1006.63
2019-05-26T04:16:10.885Z,1006.66
2019-05-26T04:16:51.263Z,1006.66
2019-05-26T04:17:31.656Z,1006.68
2019-05-26T04:18:12.045Z,1006.7
2019-05-26T04:18:52.488Z,1006.69
2019-05-26T04:19:32.869Z,1006.71
2019-05-26T04:20:13.567Z,1006.7
2019-05-26T04:20:53.928Z,1006.7
2019-05-26T04:21:34.365Z,1006.7
2019-05-26T04:22:15.069Z,1006.7
2019-05-26T04:22:55.480Z,1006.65
2019-05-26T04:23:35.886Z,1006.72
2019-05-26T04:24:16.290Z,1006.71
2019-05-26T04:24:56.721Z,1006.67
2019-05-26T04:25:37.134Z,1006.69
2019-05-26T04:26:17.545Z,1006.65
2019-05-26T04:26:58.034Z,1006.7
2019-05-26T04:27:38.601Z,1006.65
2019-05-26T04:28:19.047Z,1006.67
2019-05-26T05:05:40.691Z,1006.61
2019-05-26T05:06:23.971Z,1006.61
2019-05-26T05:07:09.438Z,1006.58
2019-05-26T05:07:49.750Z,1006.63
2019-05-26T05:08:30.466Z,1006.61
2019-05-26T05:09:10.725Z,1006.62
2019-05-26T05:14:11.525Z,1006.61
2019-05-26T05:14:50.617Z,1006.63
2019-05-26T05:15:33.119Z,1006.61
2019-05-26T05:16:13.438Z,1006.53
2019-05-26T05:16:54.232Z,1006.56
2019-05-26T05:17:44.072Z,1006.53
2019-05-26T05:19:04.812Z,1006.57
2019-05-26T05:19:45.991Z,1006.56
2019-05-26T05:20:26.354Z,1006.56
2019-05-26T05:21:09.228Z,1006.57
2019-05-26T05:21:49.814Z,1006.52
2019-05-26T05:22:30.226Z,1006.55
2019-05-26T05:23:10.681Z,1006.53
2019-05-26T05:23:51.056Z,1006.51
2019-05-26T05:24:31.418Z,1006.51
2019-05-26T05:25:14.851Z,1006.53
2019-05-26T05:26:34.099Z,1006.55
2019-05-26T05:27:14.566Z,1006.51
2019-05-26T05:27:54.957Z,1006.49
2019-05-26T05:28:35.319Z,1006.54
2019-05-26T05:29:20.712Z,1006.54
2019-05-26T05:30:01.707Z,1006.55
2019-05-26T05:30:42.111Z,1006.57
2019-05-26T05:31:22.616Z,1006.53
2019-05-26T05:32:02.926Z,1006.52
2019-05-26T05:32:43.302Z,1006.56
2019-05-26T05:33:23.702Z,1006.58
2019-05-26T05:34:10.364Z,1006.62
2019-05-26T05:34:50.727Z,1006.65
2019-05-26T05:35:31.085Z,1006.57
2019-05-26T05:36:11.714Z,1006.58
2019-05-26T05:36:52.180Z,1006.58
2019-05-26T05:37:32.553Z,1006.59
2019-05-26T05:38:15.103Z,1006.55
2019-05-26T05:38:55.466Z,1006.6
2019-05-26T05:39:35.948Z,1006.63
2019-05-26T05:40:16.612Z,1006.58
2019-05-26T05:40:59.742Z,1006.58
2019-05-26T05:41:37.115Z,1006.6
2019-05-26T05:42:17.488Z,1006.58
2019-05-26T05:42:57.896Z,1006.59
2019-05-26T05:43:38.281Z,1006.57
2019-05-26T05:44:18.670Z,1006.61
2019-05-26T05:44:59.138Z,1006.6
2019-05-26T05:45:39.496Z,1006.58
2019-05-26T05:46:19.981Z,1006.53
2019-05-26T05:47:00.329Z,1006.52
2019-05-26T05:47:40.683Z,1006.52
2019-05-26T05:48:21.098Z,1006.53
2019-05-26T05:49:01.467Z,1006.52
2019-05-26T05:49:41.885Z,1006.53
2019-05-26T05:50:23.298Z,1006.57
2019-05-26T05:51:03.656Z,1006.58
2019-05-26T05:51:44.132Z,1006.58
2019-05-26T05:52:24.631Z,1006.62
2019-05-26T05:53:04.903Z,1006.56
2019-05-26T05:53:45.322Z,1006.57
2019-05-26T05:54:25.735Z,1006.56
2019-05-26T05:55:07.126Z,1006.58
2019-05-26T05:55:47.634Z,1006.54
2019-05-26T05:56:28.099Z,1006.56
2019-05-26T05:57:12.360Z,1006.56
2019-05-26T05:57:52.746Z,1006.55
2019-05-26T05:58:33.121Z,1006.54
2019-05-26T05:59:13.578Z,1006.54
2019-05-26T06:02:10.481Z,1006.53
2019-05-26T06:02:50.556Z,1006.49
2019-05-26T06:03:30.897Z,1006.48
2019-05-26T06:04:11.335Z,1006.5
2019-05-26T06:04:51.820Z,1006.5
2019-05-26T06:05:32.167Z,1006.54
2019-05-26T06:06:12.618Z,1006.57
2019-05-26T06:06:52.981Z,1006.56
2019-05-26T06:07:33.323Z,1006.57
2019-05-26T06:08:13.766Z,1006.54
2019-05-26T06:08:54.316Z,1006.54
2019-05-26T06:09:34.806Z,1006.54
2019-05-26T06:10:16.094Z,1006.58
2019-05-26T06:17:14.671Z,1006.5
2019-05-26T06:17:55.006Z,1006.47
2019-05-26T06:18:35.572Z,1006.48
2019-05-26T06:19:15.902Z,1006.45
2019-05-26T06:19:56.268Z,1006.4
2019-05-26T06:20:36.598Z,1006.44
2019-05-26T06:21:18.398Z,1006.45
2019-05-26T06:21:58.603Z,1006.47
2019-05-26T06:22:40.694Z,1006.43
2019-05-26T06:23:22.299Z,1006.44
2019-05-26T06:24:02.869Z,1006.41
2019-05-26T06:24:43.318Z,1006.44
2019-05-26T06:25:23.703Z,1006.45
2019-05-26T06:26:04.511Z,1006.36
2019-05-26T06:26:44.937Z,1006.37
2019-05-26T06:27:25.327Z,1006.4
2019-05-26T06:28:05.802Z,1006.4
2019-05-26T06:28:46.099Z,1006.4
2019-05-26T06:29:26.576Z,1006.4
2019-05-26T06:30:07.044Z,1006.39
2019-05-26T06:30:47.553Z,1006.43
2019-05-26T06:31:28.030Z,1006.35
2019-05-26T06:32:08.603Z,1006.35
2019-05-26T06:32:49.349Z,1006.39
2019-05-26T06:33:31.338Z,1006.36
2019-05-26T06:34:11.883Z,1006.39
2019-05-26T06:34:52.431Z,1006.35
2019-05-26T06:35:33.203Z,1006.34
2019-05-26T06:36:13.226Z,1006.38
2019-05-26T06:36:54.400Z,1006.36
2019-05-26T06:37:34.768Z,1006.34
2019-05-26T06:38:15.331Z,1006.35
2019-05-26T06:42:39.995Z,1006.29
2019-05-26T06:43:20.517Z,1006.27
2019-05-26T06:44:00.903Z,1006.25
2019-05-26T06:44:52.827Z,1006.27
2019-05-26T06:45:21.967Z,1006.27
2019-05-26T06:46:02.740Z,1006.29
2019-05-26T06:46:52.233Z,1006.31
2019-05-26T06:47:33.448Z,1006.28
2019-05-26T06:49:57.210Z,1006.29
2019-05-26T06:50:37.918Z,1006.29
2019-05-26T06:51:18.804Z,1006.29
2019-05-26T06:51:59.205Z,1006.3
2019-05-26T06:52:51.020Z,1006.35
2019-05-26T06:53:31.364Z,1006.3
2019-05-26T06:54:12.330Z,1006.32
2019-05-26T06:58:21.650Z,1006.3
2019-05-26T06:59:02.806Z,1006.29
2019-05-26T06:59:42.270Z,1006.32
2019-05-26T07:00:22.626Z,1006.33
2019-05-26T07:01:03.589Z,1006.35
2019-05-26T07:01:43.517Z,1006.34
2019-05-26T07:02:23.963Z,1006.4
2019-05-26T07:03:06.325Z,1006.36
2019-05-26T07:03:46.239Z,1006.36
2019-05-26T07:04:26.779Z,1006.39
2019-05-26T07:05:07.168Z,1006.37
2019-05-26T07:05:47.571Z,1006.41
2019-05-26T07:06:27.985Z,1006.41
2019-05-26T07:07:09.534Z,1006.39
2019-05-26T07:07:50.441Z,1006.39
2019-05-26T07:08:30.842Z,1006.45
2019-05-26T07:09:51.567Z,1006.39
2019-05-26T07:10:31.984Z,1006.37
2019-05-26T07:11:12.497Z,1006.39
2019-05-26T07:12:33.205Z,1006.35
2019-05-26T07:13:13.638Z,1006.38
2019-05-26T07:13:53.981Z,1006.37
2019-05-26T07:14:34.495Z,1006.39
2019-05-26T07:15:15.073Z,1006.35
2019-05-26T07:15:55.501Z,1006.34
2019-05-26T07:16:38.319Z,1006.36
2019-05-26T07:17:19.766Z,1006.37
2019-05-26T07:17:56.691Z,1006.33
2019-05-26T07:18:37.274Z,1006.39
2019-05-26T07:19:17.801Z,1006.36
2019-05-26T07:19:58.163Z,1006.38
2019-05-26T07:27:16.452Z,1006.29
2019-05-26T07:27:56.834Z,1006.28
2019-05-26T07:28:39.494Z,1006.28
2019-05-26T07:29:19.951Z,1006.31
2019-05-26T07:30:00.317Z,1006.32
2019-05-26T07:30:40.735Z,1006.31
2019-05-26T07:31:21.150Z,1006.32
2019-05-26T07:32:01.537Z,1006.27
2019-05-26T07:32:42.248Z,1006.28
2019-05-26T07:33:22.910Z,1006.31
2019-05-26T07:34:03.362Z,1006.3
2019-05-26T07:34:43.677Z,1006.25
2019-05-26T07:35:24.135Z,1006.25
2019-05-26T07:36:04.490Z,1006.27
2019-05-26T07:36:45.576Z,1006.26
2019-05-26T07:37:26.096Z,1006.24
2019-05-26T07:38:06.600Z,1006.2
2019-05-26T07:39:28.042Z,1006.25
2019-05-26T07:40:08.382Z,1006.28
2019-05-26T07:40:48.801Z,1006.26
2019-05-26T07:41:29.196Z,1006.23
2019-05-26T07:42:11.201Z,1006.33
2019-05-26T07:42:50.170Z,1006.28
2019-05-26T07:43:30.608Z,1006.3
2019-05-26T07:44:11.037Z,1006.33
2019-05-26T07:44:51.914Z,1006.29
2019-05-26T07:45:32.389Z,1006.33
2019-05-26T07:46:12.742Z,1006.31
2019-05-26T07:46:53.248Z,1006.27
2019-05-26T07:47:33.845Z,1006.3
2019-05-26T07:48:15.176Z,1006.31
2019-05-26T07:48:55.626Z,1006.29
2019-05-26T07:49:35.987Z,1006.29
2019-05-26T07:50:16.962Z,1006.26
2019-05-26T07:50:57.404Z,1006.27
2019-05-26T07:51:38.047Z,1006.25
2019-05-26T07:52:18.419Z,1006.3
2019-05-26T07:52:58.970Z,1006.27
2019-05-26T07:56:55.722Z,1006.27
2019-05-26T07:57:37.710Z,1006.25
2019-05-26T07:58:18.241Z,1006.25
2019-05-26T08:00:36.207Z,1006.25
2019-05-26T08:01:16.634Z,1006.25
2019-05-26T08:01:57.098Z,1006.23
2019-05-26T08:02:37.520Z,1006.16
2019-05-26T08:03:17.864Z,1006.22
2019-05-26T08:03:58.265Z,1006.2
2019-05-26T08:04:38.760Z,1006.21
2019-05-26T08:05:19.177Z,1006.23
2019-05-26T08:05:59.589Z,1006.21
2019-05-26T08:06:39.964Z,1006.2
2019-05-26T08:07:22.943Z,1006.22
2019-05-26T08:08:11.849Z,1006.21
2019-05-26T08:08:41.203Z,1006.22
2019-05-26T08:09:21.858Z,1006.23
2019-05-26T08:10:02.239Z,1006.2
2019-05-26T08:10:42.569Z,1006.21
2019-05-26T08:11:22.972Z,1006.2
2019-05-26T08:12:03.409Z,1006.22
2019-05-26T08:12:43.838Z,1006.2
2019-05-26T08:13:24.258Z,1006.24
2019-05-26T08:14:04.648Z,1006.17
2019-05-26T08:14:45.142Z,1006.21
2019-05-26T08:15:25.728Z,1006.16
2019-05-26T08:16:06.302Z,1006.18
2019-05-26T08:16:46.701Z,1006.2
2019-05-26T08:17:27.140Z,1006.26
2019-05-26T08:18:07.572Z,1006.21
2019-05-26T08:18:48.018Z,1006.23
2019-05-26T08:19:28.603Z,1006.17
2019-05-26T08:20:08.922Z,1006.11
2019-05-26T08:20:49.349Z,1006.25
2019-05-26T08:21:29.800Z,1006.19
2019-05-26T08:22:10.194Z,1006.19
2019-05-26T08:22:50.637Z,1006.15
2019-05-26T08:25:03.526Z,1006.13
2019-05-26T08:25:46.699Z,1006.13
2019-05-26T08:26:27.067Z,1006.08
2019-05-26T08:27:07.552Z,1006.09
2019-05-26T08:27:48.025Z,1006.07
2019-05-26T08:28:28.475Z,1006.12
2019-05-26T08:29:11.465Z,1006.08
2019-05-26T08:29:52.032Z,1006.15
2019-05-26T08:30:32.494Z,1006.08
2019-05-26T08:31:13.490Z,1006.09
2019-05-26T08:31:53.276Z,1006.09
2019-05-26T08:32:33.692Z,1006.08
2019-05-26T08:33:15.034Z,1006.05
2019-05-26T08:33:55.547Z,1006.01
2019-05-26T08:34:36.291Z,1006.04
2019-05-26T08:35:16.889Z,1006
2019-05-26T08:35:57.462Z,1006.04
2019-05-26T08:36:37.865Z,1006.02
2019-05-26T08:37:18.270Z,1006.02
2019-05-26T08:37:58.659Z,1005.98
2019-05-26T08:38:39.017Z,1006
2019-05-26T08:39:19.483Z,1006.03
2019-05-26T08:39:59.936Z,1006.02
2019-05-26T08:40:41.369Z,1005.96
2019-05-26T08:41:21.847Z,1006
2019-05-26T08:42:02.234Z,1006.06
2019-05-26T08:42:44.657Z,1006.02
2019-05-26T08:43:23.948Z,1006.03
2019-05-26T08:44:04.358Z,1006.07
2019-05-26T08:44:44.826Z,1006.01
2019-05-26T08:46:06.018Z,1006
2019-05-26T08:46:46.431Z,1006.02
2019-05-26T08:47:26.840Z,1006.01
2019-05-26T08:48:08.415Z,1006.02
2019-05-26T08:48:48.482Z,1006.01
2019-05-26T08:49:28.921Z,1005.92
2019-05-26T08:50:09.377Z,1005.98
2019-05-26T08:50:49.982Z,1005.98
2019-05-26T08:51:30.323Z,1005.99
2019-05-26T08:52:10.996Z,1005.96
2019-05-26T08:52:51.307Z,1005.98
2019-05-26T08:59:16.304Z,1005.87
2019-05-26T08:59:56.902Z,1005.83
2019-05-26T09:00:37.347Z,1005.82
2019-05-26T09:01:17.824Z,1005.84
2019-05-26T09:01:58.211Z,1005.85
2019-05-26T09:02:38.553Z,1005.84
2019-05-26T09:03:18.960Z,1005.86
2019-05-26T09:03:59.383Z,1005.87
2019-05-26T09:04:39.729Z,1005.82
2019-05-26T09:05:20.143Z,1005.88
2019-05-26T09:06:00.551Z,1005.83
2019-05-26T09:06:40.938Z,1005.9
2019-05-26T09:07:21.356Z,1005.87
2019-05-26T09:08:01.816Z,1005.87
2019-05-26T09:08:42.193Z,1005.87
2019-05-26T09:09:22.776Z,1005.86
2019-05-26T09:10:03.194Z,1005.85
2019-05-26T09:16:31.249Z,1005.81
2019-05-26T09:17:10.420Z,1005.77
2019-05-26T09:17:50.794Z,1005.79
2019-05-26T09:18:31.206Z,1005.77
2019-05-26T09:19:11.779Z,1005.68
2019-05-26T09:19:52.226Z,1005.74
2019-05-26T09:20:33.880Z,1005.74
2019-05-26T09:21:18.064Z,1005.7
2019-05-26T09:21:58.529Z,1005.71
2019-05-26T09:22:39.031Z,1005.75
2019-05-26T09:23:21.515Z,1005.69
2019-05-26T09:24:01.986Z,1005.71
2019-05-26T09:24:42.627Z,1005.67
2019-05-26T09:25:23.140Z,1005.72
2019-05-26T09:26:05.663Z,1005.76
2019-05-26T09:26:46.099Z,1005.7
2019-05-26T09:35:29.983Z,1005.57
2019-05-26T09:36:10.390Z,1005.63
2019-05-26T09:36:52.672Z,1005.58
2019-05-26T09:37:33.101Z,1005.61
2019-05-26T09:38:13.607Z,1005.58
2019-05-26T09:38:54.083Z,1005.57
2019-05-26T09:39:35.414Z,1005.48
2019-05-26T09:40:16.330Z,1005.57
2019-05-26T09:40:57.549Z,1005.64
2019-05-26T09:41:38.482Z,1005.6
2019-05-26T09:42:21.789Z,1005.58
2019-05-26T09:42:59.374Z,1005.57
2019-05-26T09:43:39.901Z,1005.62
2019-05-26T09:44:20.903Z,1005.59
2019-05-26T09:45:01.346Z,1005.6
2019-05-26T09:45:41.834Z,1005.52
2019-05-26T09:46:22.210Z,1005.58
2019-05-26T09:47:02.695Z,1005.58
2019-05-26T09:47:43.052Z,1005.53
2019-05-26T09:48:23.487Z,1005.6
2019-05-26T09:49:04.320Z,1005.6
2019-05-26T09:49:44.596Z,1005.59
2019-05-26T09:50:25.056Z,1005.57
2019-05-26T09:51:05.436Z,1005.59
2019-05-26T09:51:45.868Z,1005.56
2019-05-26T09:52:26.381Z,1005.57
2019-05-26T09:53:07.624Z,1005.53
2019-05-26T09:54:00.712Z,1005.62
2019-05-26T09:54:29.185Z,1005.56
2019-05-26T09:55:09.508Z,1005.57
2019-05-26T09:55:49.949Z,1005.54
2019-05-26T09:56:30.244Z,1005.56
2019-05-26T09:57:10.675Z,1005.56
2019-05-26T09:57:53.061Z,1005.52
2019-05-26T09:58:33.787Z,1005.55
2019-05-26T09:59:14.262Z,1005.52
2019-05-26T09:59:54.663Z,1005.45
2019-05-26T10:00:35.130Z,1005.46
2019-05-26T10:01:15.908Z,1005.48
2019-05-26T10:01:56.305Z,1005.54
2019-05-26T10:02:36.751Z,1005.47
2019-05-26T10:03:17.136Z,1005.5
2019-05-26T10:03:57.567Z,1005.48
2019-05-26T10:04:37.985Z,1005.53
2019-05-26T10:05:18.468Z,1005.5
2019-05-26T10:06:00.154Z,1005.53
2019-05-26T10:06:41.194Z,1005.53
2019-05-26T10:07:21.791Z,1005.49
2019-05-26T10:08:02.246Z,1005.5
2019-05-26T10:08:42.678Z,1005.49
2019-05-26T10:09:23.190Z,1005.48
2019-05-26T10:10:44.101Z,1005.47